Time;durP1;ratioP1;P1;durP2;ratioP2;P2;SDS_P1;SDS_P2;PMS_P1;PMS_P2;Temp;Humidity;BMP_temperature;BMP_pressure;BME280_temperature;BME280_humidity;BME280_pressure;Samples;Min_cycle;Max_cycle;Signal;HPM_P1;HPM_P2
2023/10/10 00:02:20;;;;;;;14.20;6.13;;;14.40;99.90;;;;;;5033407;28;20510;-75
2023/10/10 00:04:54;;;;;;;5.90;4.90;;;14.40;99.90;;;;;;5034573;28;20485;-75
2023/10/10 00:07:20;;;;;;;8.53;5.90;;;14.40;99.90;;;;;;5034494;28;20425;-75
2023/10/10 00:09:45;;;;;;;9.07;6.17;;;14.40;99.90;;;;;;5034387;28;20772;-75
2023/10/10 00:12:13;;;;;;;8.63;5.80;;;14.40;99.90;;;;;;5034487;28;20178;-75
2023/10/10 00:14:39;;;;;;;9.87;6.03;;;14.40;99.90;;;;;;5033807;28;20168;-75
2023/10/10 00:17:08;;;;;;;10.03;6.53;;;14.30;99.90;;;;;;5033032;28;20430;-75
2023/10/10 00:19:43;;;;;;;9.20;6.30;;;14.30;99.90;;;;;;5032844;28;20460;-75
2023/10/10 00:22:09;;;;;;;12.73;6.70;;;14.30;99.90;;;;;;5032853;28;20406;-75
2023/10/10 00:24:35;;;;;;;11.10;6.70;;;14.20;99.90;;;;;;5034432;28;20921;-75
2023/10/10 00:27:14;;;;;;;15.90;6.23;;;14.20;99.90;;;;;;5033858;28;20518;-75
2023/10/10 00:29:43;;;;;;;7.87;6.07;;;14.20;99.90;;;;;;5032752;28;20788;-75
2023/10/10 00:32:17;;;;;;;8.40;6.57;;;14.20;99.90;;;;;;5034228;28;20472;-75
2023/10/10 00:34:47;;;;;;;12.53;6.50;;;14.10;99.90;;;;;;5034127;28;20419;-75
2023/10/10 00:37:14;;;;;;;8.00;6.20;;;14.20;99.90;;;;;;5032765;28;20430;-75
2023/10/10 00:39:39;;;;;;;11.90;6.60;;;14.10;99.90;;;;;;5033757;28;20450;-75
2023/10/10 00:42:08;;;;;;;9.70;7.57;;;14.10;99.90;;;;;;5034115;28;20424;-75
2023/10/10 00:44:37;;;;;;;8.73;6.30;;;14.10;99.90;;;;;;5032722;28;20199;-76
2023/10/10 00:47:04;;;;;;;8.37;7.03;;;14.10;99.90;;;;;;5034010;28;20461;-75
2023/10/10 00:49:36;;;;;;;13.20;7.13;;;14.10;99.90;;;;;;5033667;28;20413;-75
2023/10/10 00:52:06;;;;;;;15.80;8.77;;;14.10;99.90;;;;;;5033893;28;20436;-75
2023/10/10 00:54:33;;;;;;;13.87;9.50;;;14.00;99.90;;;;;;5033734;28;20416;-75
2023/10/10 00:57:03;;;;;;;10.63;7.87;;;14.00;99.90;;;;;;5033486;28;20446;-75
2023/10/10 00:59:35;;;;;;;12.43;8.80;;;14.00;99.90;;;;;;5032168;28;20454;-75
2023/10/10 01:02:03;;;;;;;11.77;9.20;;;14.00;99.90;;;;;;5033557;28;20448;-75
2023/10/10 01:04:35;;;;;;;12.80;8.87;;;14.00;99.90;;;;;;5033419;28;20888;-75
2023/10/10 01:07:08;;;;;;;14.97;10.07;;;14.00;99.90;;;;;;5032074;28;20430;-75
2023/10/10 01:09:39;;;;;;;12.93;9.40;;;13.90;99.90;;;;;;5033447;28;20781;-75
2023/10/10 01:12:05;;;;;;;16.77;10.17;;;13.90;99.90;;;;;;5033474;28;20414;-75
2023/10/10 01:14:31;;;;;;;18.40;10.93;;;13.90;99.90;;;;;;5031585;28;20426;-75
2023/10/10 01:17:01;;;;;;;13.03;9.27;;;13.90;99.90;;;;;;5033194;28;20194;-75
2023/10/10 01:19:29;;;;;;;9.60;7.90;;;13.90;99.90;;;;;;5033018;28;20450;-75
2023/10/10 01:21:57;;;;;;;12.23;9.17;;;13.90;99.90;;;;;;5032945;28;20489;-75
2023/10/10 01:24:27;;;;;;;13.50;9.87;;;13.90;99.90;;;;;;5033344;28;20874;-75
2023/10/10 01:26:53;;;;;;;12.70;8.00;;;13.90;99.90;;;;;;5033092;28;20426;-75
2023/10/10 01:29:26;;;;;;;11.73;7.97;;;13.90;99.90;;;;;;5032962;28;20402;-75
2023/10/10 01:31:52;;;;;;;13.63;8.07;;;13.90;99.90;;;;;;5032995;28;20407;-75
2023/10/10 01:34:32;;;;;;;10.37;8.13;;;13.90;99.90;;;;;;5032220;28;20399;-75
2023/10/10 01:37:03;;;;;;;10.00;7.07;;;13.90;99.90;;;;;;5032924;28;20434;-75
2023/10/10 01:40:13;;;;;;;11.57;7.77;;;13.90;99.90;;;;;;5032675;28;20453;-76
2023/10/10 01:42:45;;;;;;;14.00;8.00;;;13.90;99.90;;;;;;5031285;28;20418;-75
2023/10/10 01:45:11;;;;;;;16.33;8.23;;;13.90;99.90;;;;;;5032885;28;20417;-75
2023/10/10 01:47:39;;;;;;;9.50;6.77;;;13.90;99.90;;;;;;5032531;28;20486;-75
2023/10/10 01:50:10;;;;;;;11.93;8.63;;;13.90;99.90;;;;;;5032738;28;20402;-74
2023/10/10 01:52:45;;;;;;;13.50;8.70;;;13.80;99.90;;;;;;5032798;28;20406;-75
2023/10/10 01:55:12;;;;;;;17.70;8.50;;;13.80;99.90;;;;;;5032484;28;20402;-75
2023/10/10 01:57:37;;;;;;;10.37;8.83;;;13.80;99.90;;;;;;5032284;28;20406;-75
2023/10/10 02:00:11;;;;;;;12.07;8.90;;;13.80;99.90;;;;;;5032429;28;20781;-75
2023/10/10 02:02:36;;;;;;;10.67;7.50;;;13.70;99.90;;;;;;5032492;28;20253;-75
2023/10/10 02:05:04;;;;;;;12.50;8.40;;;13.70;99.90;;;;;;5032484;28;20446;-76
2023/10/10 02:07:34;;;;;;;12.00;8.03;;;13.70;99.90;;;;;;5032410;28;20207;-75
2023/10/10 02:10:26;;;;;;;12.33;7.03;;;13.60;99.90;;;;;;5032174;28;20496;-75
2023/10/10 02:12:45;;;;;;;9.57;7.37;;;13.60;99.90;;;;;;5031984;28;20921;-75
2023/10/10 02:15:13;;;;;;;13.70;7.40;;;13.60;99.90;;;;;;5032195;28;20430;-75
2023/10/10 02:17:41;;;;;;;10.03;7.03;;;13.60;99.90;;;;;;5030570;28;20175;-75
2023/10/10 02:22:53;;;;;;;11.60;8.53;;;13.60;99.90;;;;;;5032462;28;20441;-75
2023/10/10 02:28:02;;;;;;;12.00;7.87;;;13.60;99.90;;;;;;5032094;28;20421;-75
2023/10/10 02:30:34;;;;;;;15.40;9.10;;;13.60;99.90;;;;;;5032159;28;20497;-76
2023/10/10 02:33:29;;;;;;;11.50;7.20;;;13.50;99.90;;;;;;5032008;28;20904;-75
2023/10/10 02:35:55;;;;;;;11.33;7.00;;;13.50;99.90;;;;;;5031145;28;20968;-75
2023/10/10 02:38:31;;;;;;;14.57;8.20;;;13.50;99.90;;;;;;5031292;28;20449;-75
2023/10/10 02:41:19;;;;;;;9.47;6.90;;;13.50;99.90;;;;;;5032537;28;20433;-75
2023/10/10 02:43:55;;;;;;;10.40;7.33;;;13.50;99.90;;;;;;5032413;28;20398;-75
2023/10/10 02:46:36;;;;;;;8.90;6.10;;;13.50;99.90;;;;;;5030813;28;20426;-75
2023/10/10 02:49:09;;;;;;;12.20;7.07;;;13.50;99.90;;;;;;5032093;28;20468;-75
2023/10/10 02:51:36;;;;;;;9.10;6.70;;;13.50;99.90;;;;;;5032215;28;20404;-76
2023/10/10 02:54:10;;;;;;;13.87;7.60;;;13.50;99.90;;;;;;5030677;28;20417;-75
2023/10/10 02:56:43;;;;;;;10.87;7.13;;;13.50;99.90;;;;;;5031978;28;20917;-75
2023/10/10 02:59:09;;;;;;;11.40;7.20;;;13.50;99.90;;;;;;5031656;28;20437;-75
2023/10/10 03:04:22;;;;;;;14.53;7.10;;;13.50;99.90;;;;;;5032098;28;20409;-75
2023/10/10 03:06:48;;;;;;;12.13;6.87;;;13.50;99.90;;;;;;5031638;28;20844;-75
2023/10/10 03:09:38;;;;;;;12.77;8.90;;;13.40;99.90;;;;;;5031642;28;20414;-75
2023/10/10 03:12:05;;;;;;;14.73;7.33;;;13.40;99.90;;;;;;5031476;28;20186;-75
2023/10/10 03:14:33;;;;;;;8.57;6.43;;;13.40;99.90;;;;;;5031675;28;20414;-75
2023/10/10 03:17:03;;;;;;;11.77;8.40;;;13.40;99.90;;;;;;5031508;28;20450;-75
2023/10/10 03:19:36;;;;;;;12.07;7.40;;;13.40;99.90;;;;;;5031539;28;20531;-75
2023/10/10 03:22:30;;;;;;;9.53;6.40;;;13.40;99.90;;;;;;5031649;28;20398;-75
2023/10/10 03:25:09;;;;;;;10.60;7.10;;;13.30;99.90;;;;;;5030358;28;20434;-75
2023/10/10 03:27:50;;;;;;;12.00;7.73;;;13.20;99.90;;;;;;5031543;28;20410;-75
2023/10/10 03:30:50;;;;;;;10.70;6.73;;;13.20;99.90;;;;;;5030219;28;20495;-75
2023/10/10 03:33:29;;;;;;;10.17;6.80;;;13.10;99.90;;;;;;5030096;28;20418;-75
2023/10/10 03:36:30;;;;;;;13.80;6.00;;;13.10;99.90;;;;;;5031351;28;20497;-76
2023/10/10 05:23:29;;;;;;;9.20;5.97;;;13.10;99.90;;;;;;5031651;28;20406;-75
2023/10/10 05:25:13;;;;;;;6.57;5.87;;;12.60;99.90;;;;;;5033261;28;20402;-75
2023/10/10 05:27:42;;;;;;;9.87;6.77;;;12.60;99.90;;;;;;5031468;28;20421;-74
2023/10/10 05:30:23;;;;;;;8.00;5.27;;;12.50;99.90;;;;;;5033034;28;20408;-74
2023/10/10 05:33:00;;;;;;;9.80;6.10;;;12.60;99.90;;;;;;5032953;28;20861;-75
2023/10/10 05:35:37;;;;;;;8.53;6.13;;;12.60;99.90;;;;;;5033157;28;20436;-75
2023/10/10 05:38:04;;;;;;;7.77;6.30;;;12.50;99.90;;;;;;5032794;28;20485;-74
2023/10/10 05:40:33;;;;;;;10.07;6.50;;;12.60;99.90;;;;;;5032882;28;20536;-74
2023/10/10 05:43:03;;;;;;;10.37;6.33;;;12.50;99.90;;;;;;5032906;28;20394;-74
2023/10/10 05:45:31;;;;;;;10.67;6.07;;;12.50;99.90;;;;;;5032731;28;20426;-74
2023/10/10 05:47:57;;;;;;;11.23;6.50;;;12.50;99.90;;;;;;5031290;28;20414;-75
2023/10/10 05:50:23;;;;;;;9.83;6.33;;;12.60;99.90;;;;;;5032719;28;20398;-75
2023/10/10 05:52:49;;;;;;;9.37;6.10;;;12.60;99.90;;;;;;5032475;28;20398;-75
2023/10/10 05:55:15;;;;;;;9.17;6.20;;;12.70;99.90;;;;;;5032554;28;20198;-75
2023/10/10 05:57:41;;;;;;;9.83;5.20;;;12.70;99.90;;;;;;5031149;28;20410;-75
2023/10/10 06:00:13;;;;;;;10.60;6.13;;;12.80;99.90;;;;;;5032413;28;20484;-75
2023/10/10 06:02:41;;;;;;;10.63;6.43;;;12.80;99.90;;;;;;5032535;28;20410;-75
2023/10/10 06:05:08;;;;;;;11.50;7.17;;;12.90;99.90;;;;;;5032491;28;20453;-75
2023/10/10 06:07:37;;;;;;;8.77;6.73;;;12.90;99.90;;;;;;5032436;28;20398;-75
2023/10/10 06:10:06;;;;;;;10.93;6.87;;;12.90;99.90;;;;;;5032404;28;20445;-75
2023/10/10 06:12:33;;;;;;;8.73;6.20;;;12.90;99.90;;;;;;5032315;28;20786;-75
2023/10/10 06:15:05;;;;;;;11.07;6.90;;;12.90;99.90;;;;;;5032396;28;20406;-75
2023/10/10 06:17:33;;;;;;;18.17;7.13;;;13.00;99.90;;;;;;5032206;28;20421;-75
2023/10/10 06:19:59;;;;;;;10.60;6.70;;;12.90;99.90;;;;;;5031757;28;20481;-76
2023/10/10 06:22:25;;;;;;;9.47;6.80;;;13.00;99.90;;;;;;5032287;28;20502;-75
2023/10/10 06:24:57;;;;;;;7.73;6.27;;;13.10;99.90;;;;;;5032206;28;20417;-75
2023/10/10 06:27:29;;;;;;;10.97;6.90;;;13.30;99.90;;;;;;5032056;28;20287;-75
2023/10/10 06:30:00;;;;;;;9.80;7.00;;;13.30;99.90;;;;;;5032031;28;20766;-75
2023/10/10 06:32:30;;;;;;;14.53;8.60;;;13.40;99.90;;;;;;5032095;28;20842;-75
2023/10/10 06:37:43;;;;;;;16.20;6.33;;;13.60;99.90;;;;;;5032029;28;20420;-75
2023/10/10 06:40:09;;;;;;;8.90;7.40;;;13.80;99.90;;;;;;5031894;28;20441;-75
2023/10/10 06:42:36;;;;;;;7.07;5.80;;;13.90;99.90;;;;;;5032053;28;20167;-75
2023/10/10 06:45:10;;;;;;;9.70;7.03;;;14.00;99.90;;;;;;5031965;28;20885;-75
2023/10/10 06:47:39;;;;;;;10.20;6.77;;;14.20;99.90;;;;;;5030646;28;20421;-75
2023/10/10 06:50:11;;;;;;;9.13;6.67;;;14.30;99.90;;;;;;5030588;28;20410;-75
2023/10/10 06:52:37;;;;;;;11.93;6.70;;;14.40;99.90;;;;;;5031651;28;20402;-75
2023/10/10 06:55:10;;;;;;;10.00;7.83;;;14.60;99.90;;;;;;5031799;28;20403;-75
2023/10/10 06:57:38;;;;;;;12.50;8.60;;;14.70;99.90;;;;;;5031720;28;20395;-75
2023/10/10 07:00:21;;;;;;;9.97;7.23;;;14.80;99.90;;;;;;5031564;28;20510;-75
2023/10/10 07:02:52;;;;;;;8.87;6.83;;;14.90;99.90;;;;;;5031646;28;20406;-75
2023/10/10 07:05:19;;;;;;;11.00;7.13;;;15.00;99.90;;;;;;5031618;28;20432;-75
2023/10/10 07:07:46;;;;;;;8.70;7.07;;;15.10;99.90;;;;;;5031301;28;20401;-70
2023/10/10 07:10:24;;;;;;;11.37;7.10;;;15.20;99.90;;;;;;5035325;28;20777;-68
2023/10/10 07:12:54;;;;;;;11.83;7.10;;;15.40;99.90;;;;;;5030403;28;20457;-68
2023/10/10 07:15:21;;;;;;;8.33;5.80;;;15.60;99.90;;;;;;5031640;28;20414;-68
2023/10/10 07:17:49;;;;;;;9.73;6.33;;;15.80;99.90;;;;;;5030092;28;20417;-69
2023/10/10 07:22:53;;;;;;;9.53;6.73;;;16.30;99.90;;;;;;5032946;28;20517;-68
2023/10/10 07:26:05;;;;;;;14.23;7.00;;;16.40;99.90;;;;;;5056643;28;20414;-67
2023/10/10 07:30:33;;;;;;;11.77;7.47;;;16.60;99.90;;;;;;5055462;28;20440;-67
2023/10/10 07:32:27;;;;;;;11.87;8.50;;;16.80;99.90;;;;;;5040180;28;20414;-69
2023/10/10 07:34:54;;;;;;;9.17;6.97;;;16.90;99.90;;;;;;5025196;28;20402;-68
2023/10/10 07:37:22;;;;;;;10.60;7.83;;;17.10;99.90;;;;;;5035067;28;20417;-68
2023/10/10 07:42:35;;;;;;;13.57;8.57;;;17.40;99.90;;;;;;5035248;28;20448;-68
2023/10/10 07:45:13;;;;;;;8.27;5.93;;;17.60;99.90;;;;;;5035057;28;20398;-68
2023/10/10 07:50:26;;;;;;;10.43;7.43;;;17.80;99.90;;;;;;5035157;28;20394;-70
2023/10/10 07:52:55;;;;;;;14.47;8.17;;;17.90;99.90;;;;;;5033679;28;20413;-70
2023/10/10 07:59:17;;;;;;;12.27;7.77;;;18.10;99.90;;;;;;5039444;28;20446;-68
2023/10/10 08:01:47;;;;;;;13.80;8.70;;;18.40;99.90;;;;;;5058689;28;20488;-68
2023/10/10 08:04:27;;;;;;;9.70;7.60;;;18.60;99.90;;;;;;5056405;28;20418;-67
2023/10/10 08:06:54;;;;;;;10.57;7.00;;;18.90;99.90;;;;;;5055522;28;20553;-68
2023/10/10 08:09:23;;;;;;;9.30;6.27;;;19.10;99.90;;;;;;5056062;28;20440;-71
2023/10/10 08:11:54;;;;;;;7.10;6.00;;;19.40;99.90;;;;;;5052363;28;20430;-68
2023/10/10 08:14:23;;;;;;;13.73;6.37;;;19.80;99.90;;;;;;5047729;28;20415;-69
2023/10/10 08:16:50;;;;;;;12.70;6.83;;;20.40;99.90;;;;;;5034404;28;20422;-69
2023/10/10 08:19:15;;;;;;;12.87;7.37;;;21.30;99.90;;;;;;5033126;28;20541;-69
2023/10/10 08:21:50;;;;;;;11.53;6.40;;;22.70;99.90;;;;;;5034478;28;20882;-69
2023/10/10 08:24:16;;;;;;;11.27;6.33;;;24.10;99.90;;;;;;5034459;28;20170;-69
2023/10/10 08:26:42;;;;;;;10.80;7.37;;;25.60;99.90;;;;;;5034422;28;20785;-69
2023/10/10 08:29:11;;;;;;;12.30;6.90;;;26.80;99.90;;;;;;5034155;28;20218;-69
2023/10/10 08:31:38;;;;;;;10.33;6.20;;;27.80;90.40;;;;;;5032946;28;20418;-70
2023/10/10 08:34:05;;;;;;;8.03;7.03;;;29.10;90.00;;;;;;5034268;28;20413;-70
2023/10/10 08:36:31;;;;;;;11.27;6.40;;;30.60;66.80;;;;;;5034056;28;20465;-70
2023/10/10 08:39:12;;;;;;;8.40;5.50;;;31.50;56.80;;;;;;5033829;28;20560;-69
2023/10/10 08:41:41;;;;;;;9.20;7.40;;;33.00;54.80;;;;;;5032621;28;20996;-70
2023/10/10 08:44:09;;;;;;;6.67;5.80;;;34.00;48.60;;;;;;5034075;28;20406;-69
2023/10/10 08:46:46;;;;;;;6.13;4.87;;;34.80;46.70;;;;;;5033808;28;20425;-69
2023/10/10 08:49:13;;;;;;;7.93;5.13;;;35.40;44.20;;;;;;5033813;28;20413;-69
2023/10/10 08:51:41;;;;;;;7.63;6.73;;;35.70;42.40;;;;;;5033794;28;20576;-69
2023/10/10 08:54:11;;;;;;;8.50;6.30;;;35.50;41.00;;;;;;5033860;28;20406;-69
2023/10/10 08:56:40;;;;;;;9.50;5.67;;;34.70;40.50;;;;;;5033658;28;20551;-70
2023/10/10 08:59:12;;;;;;;6.83;5.17;;;34.50;41.00;;;;;;5032248;28;21003;-69
2023/10/10 09:01:38;;;;;;;8.13;6.00;;;34.10;41.30;;;;;;5033633;28;20422;-69
2023/10/10 09:04:05;;;;;;;9.77;6.10;;;33.40;40.80;;;;;;5033619;28;20501;-71
2023/10/10 09:06:45;;;;;;;9.10;7.20;;;33.30;41.70;;;;;;5033442;28;21015;-71
2023/10/10 09:11:56;;;;;;;8.03;7.23;;;34.40;42.70;;;;;;5033552;28;20405;-71
2023/10/10 09:14:41;;;;;;;9.00;6.73;;;34.70;41.50;;;;;;5033499;28;20782;-71
2023/10/10 09:17:08;;;;;;;8.70;6.50;;;35.30;41.40;;;;;;5033328;28;20513;-71
2023/10/10 09:19:39;;;;;;;9.10;6.90;;;34.70;39.50;;;;;;5033090;28;20454;-71
2023/10/10 09:22:12;;;;;;;10.13;6.10;;;34.50;41.00;;;;;;5035324;28;20485;-70
2023/10/10 09:24:41;;;;;;;7.17;6.40;;;33.90;40.50;;;;;;5037576;28;21157;-72
2023/10/10 09:27:27;;;;;;;6.70;5.13;;;33.20;41.20;;;;;;5037793;28;20526;-72
2023/10/10 09:29:56;;;;;;;7.40;5.20;;;32.60;41.60;;;;;;5035109;28;20399;-69
2023/10/10 09:32:42;;;;;;;7.70;6.40;;;32.50;42.70;;;;;;5034318;28;20756;-70
2023/10/10 09:35:08;;;;;;;8.07;5.30;;;32.30;43.00;;;;;;5023859;28;20416;-68
2023/10/10 09:37:38;;;;;;;6.87;5.83;;;32.60;43.80;;;;;;5042329;28;20388;-69
2023/10/10 09:40:15;;;;;;;11.33;5.80;;;32.90;43.40;;;;;;5041532;28;20462;-69
2023/10/10 09:42:53;;;;;;;13.20;5.63;;;33.50;43.80;;;;;;5032935;28;20425;-68
2023/10/10 09:48:27;;;;;;;8.30;4.90;;;33.90;41.70;;;;;;5025481;28;20397;-69
2023/10/10 09:56:50;;;;;;;7.67;5.13;;;35.30;40.10;;;;;;5033006;28;20582;-70
2023/10/10 09:59:20;;;;;;;9.93;5.07;;;35.50;39.00;;;;;;5038306;28;20460;-69
2023/10/10 10:01:59;;;;;;;6.90;4.00;;;35.40;38.30;;;;;;5033227;28;20438;-69
2023/10/10 10:04:28;;;;;;;7.67;4.70;;;35.80;39.50;;;;;;5035408;28;20453;-68
2023/10/10 10:07:33;;;;;;;8.83;5.73;;;36.30;39.20;;;;;;5030664;28;20437;-69
2023/10/10 10:10:18;;;;;;;9.10;5.30;;;36.90;39.00;;;;;;5034937;28;20947;-68
2023/10/10 10:13:13;;;;;;;6.37;4.17;;;36.70;37.30;;;;;;5032352;28;20472;-69
2023/10/10 10:15:53;;;;;;;5.30;4.33;;;37.00;37.70;;;;;;5032706;28;20426;-69
2023/10/10 10:18:29;;;;;;;9.57;7.87;;;37.40;37.60;;;;;;5034480;28;20461;-69
2023/10/10 10:23:38;;;;;;;8.67;5.30;;;38.00;35.80;;;;;;5042168;28;20496;-69
2023/10/10 10:26:04;;;;;;;5.40;4.30;;;38.70;34.60;;;;;;5052599;28;20449;-69
2023/10/10 10:28:37;;;;;;;5.40;4.53;;;39.60;34.80;;;;;;5052249;28;20462;-69
2023/10/10 10:31:27;;;;;;;4.20;3.80;;;40.20;33.30;;;;;;5051317;28;20504;-69
2023/10/10 10:34:23;;;;;;;7.33;4.20;;;40.80;33.10;;;;;;5051204;28;20425;-72
2023/10/10 10:36:56;;;;;;;6.90;4.63;;;41.60;30.80;;;;;;5050276;28;20426;-69
2023/10/10 10:39:26;;;;;;;7.57;4.80;;;42.70;30.60;;;;;;5030448;28;20980;-69
2023/10/10 10:41:59;;;;;;;5.53;4.53;;;43.70;30.00;;;;;;5031938;28;20369;-69
2023/10/10 10:44:54;;;;;;;5.67;4.73;;;44.70;29.00;;;;;;5032296;28;20415;-69
2023/10/10 10:47:35;;;;;;;5.00;4.40;;;45.70;28.90;;;;;;5032185;28;20389;-68
2023/10/10 10:50:27;;;;;;;5.20;4.70;;;46.50;28.30;;;;;;5031040;28;20468;-68
2023/10/10 10:52:57;;;;;;;7.20;4.97;;;46.60;28.10;;;;;;5032458;28;20456;-69
2023/10/10 10:55:28;;;;;;;7.03;4.60;;;47.50;28.10;;;;;;5032278;28;20414;-69
2023/10/10 10:58:20;;;;;;;5.30;4.30;;;48.10;25.50;;;;;;5032375;28;20385;-68
2023/10/10 11:03:34;;;;;;;5.83;3.80;;;50.00;24.10;;;;;;5038845;28;20379;-69
2023/10/10 11:06:06;;;;;;;6.10;5.50;;;50.50;23.40;;;;;;5034719;28;20437;-69
2023/10/10 11:14:00;;;;;;;6.07;4.67;;;50.10;21.60;;;;;;5056074;28;20772;-69
2023/10/10 11:16:45;;;;;;;4.90;4.23;;;50.20;20.80;;;;;;5056057;28;20478;-69
2023/10/10 11:19:38;;;;;;;4.80;3.80;;;50.10;20.70;;;;;;5054503;28;20423;-69
2023/10/10 11:22:02;;;;;;;4.10;3.67;;;50.90;21.10;;;;;;5056120;28;20900;-69
2023/10/10 11:24:32;;;;;;;6.13;4.40;;;51.00;20.00;;;;;;5055756;28;21018;-70
2023/10/10 11:29:44;;;;;;;4.63;4.30;;;52.20;19.60;;;;;;5050259;28;20485;-69
2023/10/10 11:32:13;;;;;;;5.87;4.67;;;52.70;19.60;;;;;;5055849;28;20390;-70
2023/10/10 11:34:42;;;;;;;5.27;4.23;;;53.20;19.60;;;;;;5055597;28;20917;-69
2023/10/10 11:37:17;;;;;;;6.40;4.80;;;53.70;19.80;;;;;;5052634;28;20450;-70
2023/10/10 11:39:53;;;;;;;4.73;4.33;;;54.20;19.60;;;;;;5036222;28;20388;-70
2023/10/10 11:42:33;;;;;;;4.70;4.30;;;54.70;19.30;;;;;;5034906;28;20744;-70
2023/10/10 11:45:06;;;;;;;5.20;4.73;;;55.10;19.40;;;;;;5035374;28;20424;-70
2023/10/10 11:47:42;;;;;;;6.80;4.60;;;54.80;17.60;;;;;;5042471;28;20414;-70
2023/10/10 11:50:09;;;;;;;4.43;4.07;;;54.10;17.10;;;;;;5039028;28;20463;-70
2023/10/10 11:52:49;;;;;;;4.93;4.53;;;53.90;17.50;;;;;;5034882;28;20459;-70
2023/10/10 11:55:17;;;;;;;10.27;9.47;;;53.40;17.60;;;;;;5038840;28;20823;-70
2023/10/10 11:57:44;;;;;;;5.60;5.00;;;53.40;18.50;;;;;;5040951;28;20435;-70
2023/10/10 12:00:11;;;;;;;4.70;4.30;;;53.90;19.10;;;;;;5037455;28;20890;-70
2023/10/10 12:02:39;;;;;;;4.60;4.20;;;53.90;17.70;;;;;;5040939;28;20913;-70
2023/10/10 12:05:58;;;;;;;5.40;4.90;;;54.50;18.10;;;;;;5034571;28;20446;-70
2023/10/10 12:08:06;;;;;;;7.33;6.63;;;55.10;18.30;;;;;;5031695;28;20480;-70
2023/10/10 12:10:52;;;;;;;7.57;6.97;;;55.50;16.90;;;;;;5034700;28;20409;-70
2023/10/10 12:15:52;;;;;;;4.70;4.33;;;55.80;16.30;;;;;;5037642;28;20948;-70
2023/10/10 12:18:20;;;;;;;6.83;5.67;;;55.10;16.00;;;;;;5033567;28;20414;-70
2023/10/10 12:20:45;;;;;;;11.70;5.73;;;55.10;16.40;;;;;;5034163;28;20163;-70
2023/10/10 12:23:11;;;;;;;5.40;4.67;;;54.90;16.30;;;;;;5034308;28;20406;-70
2023/10/10 12:25:40;;;;;;;5.50;5.00;;;54.70;16.20;;;;;;5034211;28;20237;-70
2023/10/10 12:28:09;;;;;;;4.70;4.20;;;53.80;16.40;;;;;;5033906;28;20156;-70
2023/10/10 12:30:42;;;;;;;7.53;4.70;;;51.80;16.50;;;;;;5034238;28;20427;-70
2023/10/10 12:33:08;;;;;;;4.17;3.77;;;49.70;16.90;;;;;;5033932;28;20379;-69
2023/10/10 12:35:37;;;;;;;3.97;3.67;;;48.70;17.70;;;;;;5034108;28;20484;-69
2023/10/10 12:38:03;;;;;;;7.03;5.00;;;49.30;18.50;;;;;;5038431;28;20462;-69
2023/10/10 12:40:33;;;;;;;5.20;4.73;;;49.60;17.40;;;;;;5034003;28;20880;-70
2023/10/10 12:43:01;;;;;;;6.07;5.00;;;50.10;18.40;;;;;;5034801;28;20168;-70
2023/10/10 12:45:32;;;;;;;5.73;4.03;;;50.70;17.60;;;;;;5039504;28;20740;-70
2023/10/10 12:47:58;;;;;;;10.00;5.60;;;51.50;18.10;;;;;;5033748;28;20373;-70
2023/10/10 12:50:26;;;;;;;7.40;4.50;;;51.70;17.20;;;;;;5033870;28;20800;-70
2023/10/10 12:53:07;;;;;;;6.07;5.47;;;51.70;17.00;;;;;;5032619;28;20896;-70
2023/10/10 12:55:48;;;;;;;6.70;4.40;;;52.00;17.60;;;;;;5031907;28;20471;-70
2023/10/10 12:58:20;;;;;;;4.77;4.30;;;52.90;18.40;;;;;;5035561;28;20384;-69
2023/10/10 13:00:52;;;;;;;5.30;4.80;;;53.70;18.10;;;;;;5036036;28;20495;-69
2023/10/10 13:03:19;;;;;;;4.77;4.37;;;54.00;16.70;;;;;;5033630;28;20408;-69
2023/10/10 13:05:50;;;;;;;5.50;5.10;;;54.00;16.40;;;;;;5035811;28;20439;-69
2023/10/10 13:08:17;;;;;;;4.80;4.40;;;53.60;15.20;;;;;;5035180;28;20393;-70
2023/10/10 13:10:44;;;;;;;6.87;4.97;;;53.60;16.30;;;;;;5035359;28;20406;-69
2023/10/10 13:13:09;;;;;;;7.43;5.00;;;53.20;15.30;;;;;;5033274;28;20385;-69
2023/10/10 13:15:49;;;;;;;5.30;4.80;;;52.70;15.20;;;;;;5031857;28;20409;-69
2023/10/10 13:18:22;;;;;;;4.90;4.43;;;50.90;14.70;;;;;;5025622;28;20159;-69
2023/10/10 13:20:50;;;;;;;8.13;5.20;;;50.20;15.50;;;;;;5033425;28;20405;-69
2023/10/10 13:23:17;;;;;;;5.27;4.87;;;50.00;16.00;;;;;;5033321;28;20905;-69
2023/10/10 13:25:43;;;;;;;4.40;3.90;;;49.90;16.70;;;;;;5033354;28;20400;-69
2023/10/10 13:28:09;;;;;;;7.60;6.90;;;50.00;16.30;;;;;;5031493;28;20377;-69
2023/10/10 13:30:41;;;;;;;5.87;5.37;;;50.30;16.70;;;;;;5035150;28;20176;-74
2023/10/10 13:33:07;;;;;;;6.70;4.53;;;50.60;16.50;;;;;;5033150;28;20875;-69
2023/10/10 13:35:37;;;;;;;6.40;5.00;;;50.20;15.90;;;;;;5032854;28;20407;-69
2023/10/10 13:38:06;;;;;;;6.37;4.57;;;49.80;16.20;;;;;;5033029;28;20242;-69
2023/10/10 13:40:45;;;;;;;5.00;4.50;;;49.50;16.20;;;;;;5036141;28;20776;-69
2023/10/10 13:43:16;;;;;;;6.63;5.20;;;49.30;16.20;;;;;;5032453;28;20412;-69
2023/10/10 13:45:43;;;;;;;5.43;4.93;;;49.00;16.40;;;;;;5031666;28;20487;-69
2023/10/10 13:48:08;;;;;;;8.23;3.80;;;48.80;16.70;;;;;;5032512;28;20377;-68
2023/10/10 13:50:46;;;;;;;9.07;4.63;;;48.50;16.60;;;;;;5032926;28;20373;-69
2023/10/10 13:53:13;;;;;;;8.43;4.60;;;47.70;16.70;;;;;;5032838;28;20560;-69
2023/10/10 13:55:44;;;;;;;5.90;4.90;;;47.30;17.10;;;;;;5032623;28;20473;-69
2023/10/10 13:58:15;;;;;;;4.53;4.10;;;46.90;17.20;;;;;;5032684;28;20437;-69
2023/10/10 14:00:45;;;;;;;6.77;5.33;;;46.90;18.10;;;;;;5036325;28;20434;-69
2023/10/10 14:03:14;;;;;;;6.37;5.00;;;46.70;17.20;;;;;;5032521;28;20391;-69
2023/10/10 14:05:41;;;;;;;9.80;5.10;;;45.90;17.10;;;;;;5035275;28;20774;-69
2023/10/10 14:08:09;;;;;;;4.20;3.90;;;45.30;17.30;;;;;;5037991;28;20422;-69
2023/10/10 14:10:39;;;;;;;6.80;4.70;;;45.50;18.50;;;;;;5032328;28;20408;-69
2023/10/10 14:13:21;;;;;;;7.00;5.10;;;45.40;17.60;;;;;;5032472;28;20385;-69
2023/10/10 14:15:54;;;;;;;10.17;5.47;;;45.20;17.60;;;;;;5032134;28;20426;-69
2023/10/10 14:18:51;;;;;;;5.77;5.17;;;44.90;18.00;;;;;;5032224;28;20485;-69
2023/10/10 14:21:24;;;;;;;5.87;4.70;;;44.70;18.80;;;;;;5024814;28;21023;-68
2023/10/10 14:23:54;;;;;;;6.87;4.97;;;44.60;18.90;;;;;;5032278;28;20387;-68
2023/10/10 14:26:26;;;;;;;6.03;4.90;;;44.70;19.20;;;;;;5032199;28;20450;-69
2023/10/10 14:28:52;;;;;;;6.23;4.53;;;44.90;19.70;;;;;;5031972;28;20477;-68
2023/10/10 14:31:23;;;;;;;4.87;4.10;;;45.00;19.60;;;;;;5032103;28;20406;-68
2023/10/10 14:33:53;;;;;;;8.17;4.80;;;44.90;19.20;;;;;;5032096;28;20410;-69
2023/10/10 14:36:18;;;;;;;6.23;4.73;;;44.30;18.30;;;;;;5031918;28;20480;-69
2023/10/10 14:38:44;;;;;;;4.87;4.33;;;43.90;18.70;;;;;;5032012;28;20441;-69
2023/10/10 14:41:16;;;;;;;5.10;4.60;;;43.60;19.60;;;;;;5031892;28;20508;-69
2023/10/10 14:43:54;;;;;;;8.30;5.10;;;43.50;20.20;;;;;;5032040;28;20897;-69
2023/10/10 14:46:24;;;;;;;5.40;4.90;;;43.40;20.40;;;;;;5031911;28;20797;-69
2023/10/10 14:49:00;;;;;;;5.03;3.63;;;43.10;20.00;;;;;;5031848;28;20991;-68
2023/10/10 14:51:33;;;;;;;5.33;4.83;;;42.70;20.00;;;;;;5032235;28;20417;-68
2023/10/10 14:54:06;;;;;;;5.83;4.90;;;42.40;20.80;;;;;;5032056;28;20403;-68
2023/10/10 14:56:36;;;;;;;6.70;4.67;;;42.10;20.60;;;;;;5031888;28;20426;-67
2023/10/10 14:59:04;;;;;;;5.10;3.90;;;41.60;20.80;;;;;;5031701;28;20406;-67
2023/10/10 15:01:34;;;;;;;7.13;4.80;;;41.30;21.50;;;;;;5035866;28;20434;-67
2023/10/10 15:04:08;;;;;;;4.80;4.30;;;41.00;21.60;;;;;;5030738;28;20508;-68
2023/10/10 15:06:35;;;;;;;6.03;4.50;;;40.70;22.00;;;;;;5043520;28;20437;-68
2023/10/10 15:09:01;;;;;;;6.60;4.67;;;40.30;22.10;;;;;;5033399;28;20933;-68
2023/10/10 15:11:27;;;;;;;4.90;3.87;;;39.70;21.80;;;;;;5031825;28;20445;-68
2023/10/10 15:13:57;;;;;;;5.20;3.90;;;39.30;22.50;;;;;;5038188;28;20428;-68
2023/10/10 15:16:23;;;;;;;9.10;5.20;;;38.80;22.40;;;;;;5036614;28;20445;-68
2023/10/10 15:18:52;;;;;;;8.40;4.37;;;38.20;22.80;;;;;;5028774;28;21006;-68
2023/10/10 15:21:19;;;;;;;8.47;4.70;;;37.70;23.30;;;;;;5036599;28;20779;-68
2023/10/10 15:23:46;;;;;;;9.40;4.97;;;37.10;23.30;;;;;;5036518;28;20425;-67
2023/10/10 15:26:17;;;;;;;6.47;4.67;;;36.60;24.20;;;;;;5036004;28;20500;-68
2023/10/10 15:28:44;;;;;;;5.97;4.47;;;36.20;25.00;;;;;;5035267;28;20468;-67
2023/10/10 15:31:10;;;;;;;5.70;4.30;;;35.50;25.00;;;;;;5033478;28;20424;-67
2023/10/10 15:33:36;;;;;;;7.90;4.20;;;35.10;25.80;;;;;;5032154;28;20414;-67
2023/10/10 15:36:06;;;;;;;5.27;4.40;;;34.80;26.40;;;;;;5037059;28;20445;-67
2023/10/10 15:38:32;;;;;;;7.00;4.40;;;34.60;27.00;;;;;;5029944;28;20418;-67
2023/10/10 15:40:57;;;;;;;4.40;3.40;;;34.30;27.30;;;;;;5032530;28;20422;-68
2023/10/10 15:43:24;;;;;;;6.00;4.70;;;33.90;27.50;;;;;;5036124;28;20254;-67